CYQL

Lethbridge County Airport

Lethbridge, Alberta, Canada
METAR CYQL 210900Z AUTO 13004KT 9SM FEW080 11/10 A2992 RMK SLP126 DENSITY ALT 3300FT
Observed Flight Rules
Jun-21 @ 09:00 UTC (57 minutes ago) Visual Flight Rules
Wind Visibility Clouds
130° at 4 knots 9 miles
  • Few at 8,000' AGL
Temperatures Readings
Current 11°C / 52°F
Dewpoint 10°C / 50°F
Humidity 94%
Altimeter 29.92" Hg
Pressure 1012.6 hPa
Elevation 929
METAR CYQL 210900Z AUTO 13004KT 9SM FEW080 11/10 A2992 RMK SLP126 DENSITY ALT 3300FT
Observed Flight Rules
Jun-21 @ 09:00 UTC
(57 minutes ago)
VFR
Wind Visibility
130° at 4 knots 9 miles
Clouds
  • Few at 8,000' AGL
Temperature Dewpoint
11°C / 52°F 10°C / 50°F
Humidity Altimeter Pressure
94% 29.92" Hg 1012.6 hPa